Time;durP1;ratioP1;P1;durP2;ratioP2;P2;SDS_P1;SDS_P2;PMS_P1;PMS_P2;Temp;Humidity;BMP_temperature;BMP_pressure;BME280_temperature;BME280_humidity;BME280_pressure;Samples;Min_cycle;Max_cycle;Signal;HPM_P1;HPM_P2
2023/07/27 00:00:40;;;;;;;4.67;3.33;;;18.60;99.90;;;;;;4998555;28;20251;-82
2023/07/27 00:03:07;;;;;;;5.50;3.20;;;18.60;99.90;;;;;;4998058;28;20442;-83
2023/07/27 00:05:32;;;;;;;5.03;3.30;;;18.60;99.90;;;;;;4998310;28;20176;-83
2023/07/27 00:08:01;;;;;;;6.73;2.60;;;18.60;99.90;;;;;;4996688;28;20542;-82
2023/07/27 00:10:27;;;;;;;3.67;2.90;;;18.60;99.90;;;;;;4996881;28;20177;-82
2023/07/27 00:12:54;;;;;;;4.83;3.00;;;18.60;99.90;;;;;;4998286;28;20408;-82
2023/07/27 00:15:19;;;;;;;4.50;3.20;;;18.60;99.90;;;;;;5000918;28;20462;-82
2023/07/27 00:17:45;;;;;;;7.30;3.03;;;18.60;99.90;;;;;;5009437;28;20453;-82
2023/07/27 00:20:11;;;;;;;5.20;2.70;;;18.60;99.90;;;;;;4998128;28;20183;-83
2023/07/27 00:22:37;;;;;;;6.10;2.80;;;18.60;99.90;;;;;;4996089;28;20186;-82
2023/07/27 00:25:03;;;;;;;4.03;3.13;;;18.60;99.90;;;;;;4997342;28;20442;-83
2023/07/27 00:27:28;;;;;;;4.47;3.27;;;18.60;99.90;;;;;;4997345;28;20223;-82
2023/07/27 00:29:54;;;;;;;8.20;3.50;;;18.60;99.90;;;;;;4996677;28;20434;-82
2023/07/27 00:32:20;;;;;;;3.70;3.20;;;18.60;99.90;;;;;;4999988;28;20685;-83
2023/07/27 00:34:45;;;;;;;6.40;3.13;;;18.60;99.90;;;;;;4997289;28;20227;-82
2023/07/27 00:37:12;;;;;;;7.03;3.20;;;18.60;99.90;;;;;;4997451;28;20207;-83
2023/07/27 00:39:38;;;;;;;3.67;2.90;;;18.60;99.90;;;;;;4996875;28;20189;-83
2023/07/27 00:42:04;;;;;;;7.03;3.40;;;18.60;99.90;;;;;;4998081;28;20409;-83
2023/07/27 00:44:32;;;;;;;3.90;3.10;;;18.60;99.90;;;;;;4998171;28;20189;-83
2023/07/27 00:46:58;;;;;;;3.20;2.60;;;18.60;99.90;;;;;;5048482;28;20497;-81
2023/07/27 00:49:24;;;;;;;9.90;3.10;;;18.60;99.90;;;;;;4997268;28;20410;-82
2023/07/27 00:51:52;;;;;;;5.00;3.17;;;18.60;99.90;;;;;;4995975;28;20410;-83
2023/07/27 00:54:18;;;;;;;4.03;2.70;;;18.70;99.90;;;;;;4997805;28;20171;-82
2023/07/27 00:56:44;;;;;;;4.27;2.60;;;18.70;99.90;;;;;;4996239;28;21044;-83
2023/07/27 00:59:10;;;;;;;4.77;2.37;;;18.70;99.90;;;;;;4997285;28;20410;-83
2023/07/27 01:01:36;;;;;;;7.47;2.80;;;18.70;99.90;;;;;;4997619;28;20421;-83
2023/07/27 01:04:04;;;;;;;4.17;2.97;;;18.70;99.90;;;;;;4996332;28;20499;-83
2023/07/27 01:06:30;;;;;;;3.27;2.50;;;18.70;99.90;;;;;;4997748;28;20259;-83
2023/07/27 01:08:56;;;;;;;2.60;2.00;;;18.70;99.90;;;;;;4997135;28;20438;-83
2023/07/27 01:11:24;;;;;;;3.30;2.50;;;18.70;99.90;;;;;;4997204;28;20168;-82
2023/07/27 01:13:59;;;;;;;4.77;3.00;;;18.70;99.90;;;;;;4996296;28;20418;-82
2023/07/27 01:16:40;;;;;;;3.60;2.27;;;18.70;99.90;;;;;;4996600;28;20435;-82
2023/07/27 01:19:28;;;;;;;4.07;2.60;;;18.80;99.90;;;;;;4997067;28;20458;-83
2023/07/27 01:22:17;;;;;;;4.37;2.37;;;18.80;99.90;;;;;;4996457;28;20467;-82
2023/07/27 01:24:51;;;;;;;3.90;2.50;;;18.80;99.90;;;;;;4995795;28;20411;-83
2023/07/27 01:27:38;;;;;;;4.00;2.37;;;18.80;99.90;;;;;;4997517;28;20870;-82
2023/07/27 01:30:23;;;;;;;3.90;2.67;;;18.80;99.90;;;;;;4995839;28;20464;-83
2023/07/27 01:32:56;;;;;;;4.20;2.60;;;18.80;99.90;;;;;;4996041;28;20507;-82
2023/07/27 01:35:26;;;;;;;4.00;2.67;;;18.80;99.90;;;;;;4997496;28;20436;-83
2023/07/27 01:37:54;;;;;;;5.43;2.97;;;18.70;99.90;;;;;;4996916;28;20490;-83
2023/07/27 01:40:22;;;;;;;7.37;2.63;;;18.70;99.90;;;;;;4996328;28;20411;-83
2023/07/27 01:42:51;;;;;;;5.13;2.70;;;18.70;99.90;;;;;;4997098;28;20433;-83
2023/07/27 01:45:18;;;;;;;2.93;2.30;;;18.70;99.90;;;;;;4998448;28;20501;-81
2023/07/27 01:47:45;;;;;;;2.50;2.10;;;18.70;99.90;;;;;;5078479;28;20511;-82
2023/07/27 01:50:13;;;;;;;3.53;2.20;;;18.70;99.90;;;;;;5078189;28;20404;-82
2023/07/27 01:52:43;;;;;;;6.40;2.83;;;18.60;99.90;;;;;;5077839;28;20420;-83
2023/07/27 01:55:10;;;;;;;7.87;2.87;;;18.60;99.90;;;;;;5079061;28;20470;-82
2023/07/27 01:57:37;;;;;;;5.63;3.30;;;18.60;99.90;;;;;;5079219;28;20918;-83
2023/07/27 02:00:05;;;;;;;8.00;2.60;;;18.50;99.90;;;;;;5078272;28;20511;-83
2023/07/27 02:02:31;;;;;;;3.73;2.90;;;18.40;99.90;;;;;;5079793;28;20449;-83
2023/07/27 02:05:00;;;;;;;6.93;3.40;;;18.40;99.90;;;;;;5079001;28;20422;-83
2023/07/27 02:07:25;;;;;;;3.57;2.47;;;18.40;99.90;;;;;;5077927;28;20588;-83
2023/07/27 02:09:51;;;;;;;8.07;3.80;;;18.30;99.90;;;;;;5078365;28;20506;-83
2023/07/27 02:12:26;;;;;;;5.50;3.00;;;18.30;99.90;;;;;;5078808;28;20198;-82
2023/07/27 02:15:33;;;;;;;3.03;2.70;;;18.20;1.00;;;;;;5077452;28;20226;-83
2023/07/27 02:18:05;;;;;;;7.37;3.70;;;18.10;1.00;;;;;;5022880;28;20449;-83
2023/07/27 02:20:34;;;;;;;5.33;3.50;;;18.10;1.00;;;;;;5036244;28;20416;-83
2023/07/27 02:23:02;;;;;;;6.20;3.57;;;18.00;54.30;;;;;;4993028;28;20437;-83
2023/07/27 02:25:27;;;;;;;6.70;3.80;;;17.90;99.90;;;;;;4940455;29;20427;-83
2023/07/27 02:27:53;;;;;;;5.40;3.80;;;17.90;99.90;;;;;;4957438;28;20465;-82
2023/07/27 02:30:19;;;;;;;4.70;3.23;;;17.80;99.90;;;;;;4956166;28;20722;-82
2023/07/27 02:32:44;;;;;;;3.77;3.37;;;17.80;1.00;;;;;;4955729;28;20632;-83
2023/07/27 02:35:10;;;;;;;4.90;3.90;;;17.80;1.00;;;;;;4957299;28;20200;-82
2023/07/27 02:37:35;;;;;;;6.33;3.93;;;17.70;99.90;;;;;;4956834;28;20206;-83
2023/07/27 02:40:03;;;;;;;5.33;4.00;;;17.70;99.90;;;;;;4959705;28;20182;-83
2023/07/27 02:42:29;;;;;;;5.43;4.53;;;17.60;1.00;;;;;;4968137;28;20180;-81
2023/07/27 02:44:57;;;;;;;7.73;4.10;;;17.60;11.80;;;;;;4966697;28;20426;-82
2023/07/27 02:47:22;;;;;;;7.50;4.10;;;17.50;99.90;;;;;;5027970;28;20220;-83
2023/07/27 02:49:50;;;;;;;4.77;3.70;;;17.50;1.00;;;;;;4995897;28;20496;-83
2023/07/27 02:52:16;;;;;;;6.63;4.67;;;17.40;92.60;;;;;;4995726;28;20181;-83
2023/07/27 02:54:42;;;;;;;8.60;4.83;;;17.40;99.90;;;;;;4997008;28;20422;-83
2023/07/27 02:57:07;;;;;;;6.93;3.70;;;17.40;99.90;;;;;;4995589;28;20441;-84
2023/07/27 02:59:33;;;;;;;12.60;4.40;;;17.40;1.00;;;;;;4995877;28;20188;-83
2023/07/27 03:01:58;;;;;;;9.33;5.90;;;17.30;1.00;;;;;;4996071;28;20192;-83
2023/07/27 03:04:24;;;;;;;9.63;5.13;;;17.30;99.90;;;;;;4995095;28;20180;-84
2023/07/27 03:06:52;;;;;;;11.03;5.23;;;17.30;1.00;;;;;;4994550;28;20224;-83
2023/07/27 03:09:19;;;;;;;8.57;5.67;;;17.20;99.90;;;;;;4995302;28;20613;-83
2023/07/27 03:11:44;;;;;;;8.30;5.40;;;17.10;1.00;;;;;;4995768;28;20432;-83
2023/07/27 03:14:10;;;;;;;9.03;5.13;;;17.00;1.00;;;;;;4998009;28;20448;-83
2023/07/27 03:16:35;;;;;;;10.20;5.50;;;16.90;37.70;;;;;;5045563;28;20188;-83
2023/07/27 03:19:03;;;;;;;6.73;5.20;;;16.90;99.90;;;;;;5037433;28;20189;-83
2023/07/27 03:21:29;;;;;;;8.67;5.27;;;16.90;99.90;;;;;;4979977;28;20239;-83
2023/07/27 03:23:54;;;;;;;8.63;5.30;;;16.90;99.90;;;;;;4978877;28;20432;-83
2023/07/27 03:26:20;;;;;;;8.70;6.17;;;16.80;99.90;;;;;;4978305;28;20213;-82
2023/07/27 03:28:45;;;;;;;8.10;5.67;;;16.80;99.90;;;;;;4978257;28;20253;-83
2023/07/27 03:31:15;;;;;;;13.30;5.97;;;16.80;99.90;;;;;;4979735;28;20176;-83
2023/07/27 03:33:41;;;;;;;10.03;6.97;;;16.80;99.90;;;;;;4979275;28;20176;-82
2023/07/27 03:36:07;;;;;;;9.50;6.10;;;16.70;99.90;;;;;;4978090;28;20415;-83
2023/07/27 03:38:32;;;;;;;11.47;5.60;;;16.70;99.90;;;;;;4979322;28;20201;-83
2023/07/27 03:40:58;;;;;;;9.37;5.43;;;16.60;99.90;;;;;;4977856;28;20185;-82
2023/07/27 03:43:26;;;;;;;9.60;5.70;;;16.60;99.90;;;;;;4979549;28;20180;-83
2023/07/27 03:45:54;;;;;;;11.53;6.07;;;16.60;1.00;;;;;;4977539;28;20255;-81
2023/07/27 03:48:20;;;;;;;9.03;6.60;;;16.50;1.00;;;;;;5064660;28;20836;-84
2023/07/27 03:50:46;;;;;;;16.93;6.90;;;16.50;1.00;;;;;;4998046;28;20427;-82
2023/07/27 03:53:11;;;;;;;19.30;6.93;;;16.50;1.00;;;;;;4997560;28;20177;-81
2023/07/27 03:55:37;;;;;;;16.60;7.13;;;16.50;1.00;;;;;;4997909;28;20191;-82
2023/07/27 03:58:03;;;;;;;12.73;7.53;;;16.40;1.00;;;;;;5000237;28;20482;-82
2023/07/27 04:00:28;;;;;;;13.63;7.33;;;16.30;1.00;;;;;;4996172;28;20199;-82
2023/07/27 04:02:54;;;;;;;14.60;8.20;;;16.20;1.00;;;;;;4994480;28;20187;-82
2023/07/27 04:05:19;;;;;;;14.83;8.40;;;16.10;1.00;;;;;;4995196;28;20191;-83
2023/07/27 04:07:49;;;;;;;14.40;8.60;;;16.00;1.00;;;;;;4993660;28;20561;-82
2023/07/27 04:10:15;;;;;;;13.00;8.63;;;16.00;1.00;;;;;;4994514;28;20187;-82
2023/07/27 04:12:40;;;;;;;14.90;9.77;;;15.90;1.00;;;;;;4993882;28;20495;-80
2023/07/27 04:15:06;;;;;;;12.17;8.80;;;15.80;1.00;;;;;;4994073;28;20179;-82
2023/07/27 04:17:32;;;;;;;22.87;9.80;;;15.80;1.00;;;;;;5072226;28;20211;-81
2023/07/27 04:19:57;;;;;;;20.63;9.67;;;15.80;1.00;;;;;;5076485;28;20518;-82
2023/07/27 04:22:23;;;;;;;18.87;10.10;;;15.70;1.00;;;;;;5076926;28;20177;-82
2023/07/27 04:24:49;;;;;;;18.30;9.97;;;15.70;1.00;;;;;;5075823;28;20240;-82
2023/07/27 04:27:15;;;;;;;21.40;9.77;;;15.70;1.00;;;;;;5076526;28;20205;-82
2023/07/27 04:29:40;;;;;;;19.33;9.30;;;15.70;1.00;;;;;;5076726;28;20484;-82
2023/07/27 04:32:08;;;;;;;14.30;9.10;;;15.70;1.00;;;;;;5076574;28;20181;-82
2023/07/27 04:34:33;;;;;;;14.67;8.97;;;15.60;1.00;;;;;;5074999;28;20199;-82
2023/07/27 04:36:59;;;;;;;14.90;9.07;;;15.70;1.00;;;;;;5074930;28;20534;-81
2023/07/27 04:39:25;;;;;;;16.17;9.70;;;15.70;1.00;;;;;;5076054;28;20176;-82
2023/07/27 04:41:50;;;;;;;18.93;9.37;;;15.70;1.00;;;;;;5075060;28;20730;-81
2023/07/27 04:44:16;;;;;;;14.93;8.30;;;15.70;1.00;;;;;;5075616;28;20173;-81
2023/07/27 04:46:41;;;;;;;41.83;10.67;;;15.70;1.00;;;;;;5037030;28;20214;-82
2023/07/27 04:49:07;;;;;;;17.67;9.63;;;15.80;1.00;;;;;;5075418;28;20677;-81
2023/07/27 04:51:33;;;;;;;16.70;10.10;;;15.60;1.00;;;;;;5074073;28;20255;-81
2023/07/27 04:53:59;;;;;;;40.57;13.50;;;15.50;1.00;;;;;;5075052;28;20173;-81
2023/07/27 04:56:25;;;;;;;18.43;10.30;;;15.30;1.00;;;;;;5073230;28;20848;-82
2023/07/27 04:58:50;;;;;;;21.30;11.63;;;15.40;6.10;;;;;;5074779;28;20185;-81
2023/07/27 05:01:16;;;;;;;24.67;12.23;;;15.40;8.60;;;;;;5074733;28;20184;-81
2023/07/27 05:03:41;;;;;;;23.37;13.77;;;15.40;11.00;;;;;;5073544;28;20239;-80
2023/07/27 05:06:07;;;;;;;27.07;13.57;;;15.30;11.00;;;;;;5074014;28;20198;-81
2023/07/27 05:08:33;;;;;;;24.80;12.90;;;15.40;14.30;;;;;;5073490;28;20202;-82
2023/07/27 05:10:58;;;;;;;22.40;12.90;;;15.40;17.70;;;;;;5074330;28;20255;-81
2023/07/27 05:13:24;;;;;;;25.60;13.13;;;15.40;18.70;;;;;;5074428;28;20173;-80
2023/07/27 05:15:49;;;;;;;20.80;12.90;;;15.40;16.50;;;;;;5054266;28;20195;-81
2023/07/27 05:18:15;;;;;;;23.70;14.20;;;15.30;17.00;;;;;;4992232;28;20211;-82
2023/07/27 05:20:42;;;;;;;23.90;14.17;;;15.30;18.80;;;;;;4993018;28;20195;-81
2023/07/27 05:23:07;;;;;;;21.63;13.40;;;15.30;21.30;;;;;;4991286;28;20249;-81
2023/07/27 05:25:33;;;;;;;23.60;12.13;;;15.40;24.20;;;;;;4990983;28;20425;-81
2023/07/27 05:27:58;;;;;;;21.67;11.80;;;15.50;26.60;;;;;;4992082;28;20211;-81
2023/07/27 05:30:24;;;;;;;18.93;11.17;;;15.50;26.70;;;;;;4992328;28;20178;-80
2023/07/27 05:32:49;;;;;;;21.50;12.00;;;15.60;26.90;;;;;;4993247;28;20206;-80
2023/07/27 05:35:15;;;;;;;20.60;10.90;;;15.60;24.70;;;;;;4992680;28;20202;-80
2023/07/27 05:37:46;;;;;;;26.90;10.93;;;15.60;24.40;;;;;;4992148;28;20218;-81
2023/07/27 05:40:15;;;;;;;25.80;11.00;;;15.60;27.10;;;;;;4991595;28;20560;-81
2023/07/27 05:42:41;;;;;;;19.77;11.00;;;15.70;27.40;;;;;;4991236;28;20420;-81
2023/07/27 05:45:07;;;;;;;18.90;10.93;;;15.70;23.60;;;;;;4991428;28;20419;-82
2023/07/27 05:47:32;;;;;;;18.40;11.30;;;15.70;23.60;;;;;;4990599;28;20458;-81
2023/07/27 05:49:58;;;;;;;18.40;10.90;;;15.70;25.50;;;;;;4991236;28;20794;-82
2023/07/27 05:52:24;;;;;;;19.60;11.47;;;15.70;24.30;;;;;;4992293;28;20226;-81
2023/07/27 05:54:50;;;;;;;21.50;11.23;;;15.80;23.90;;;;;;4991421;28;20608;-81
2023/07/27 05:57:15;;;;;;;18.03;10.97;;;15.80;23.60;;;;;;4992040;28;20508;-80
2023/07/27 05:59:41;;;;;;;20.10;11.20;;;15.80;23.40;;;;;;4991669;28;20822;-82
2023/07/27 06:02:07;;;;;;;19.50;10.60;;;15.90;24.30;;;;;;4991571;28;20182;-82
2023/07/27 06:04:32;;;;;;;21.90;11.00;;;15.90;24.00;;;;;;4991316;28;20249;-82
2023/07/27 06:06:58;;;;;;;20.40;10.00;;;15.90;25.00;;;;;;4991014;28;20200;-81
2023/07/27 06:09:24;;;;;;;18.73;10.30;;;15.90;24.00;;;;;;4991485;28;20187;-83
2023/07/27 06:11:51;;;;;;;21.50;9.63;;;16.00;26.10;;;;;;4991553;28;20187;-82
2023/07/27 06:14:16;;;;;;;20.73;9.73;;;16.00;27.70;;;;;;4991567;28;20417;-82
2023/07/27 06:16:42;;;;;;;12.57;8.53;;;16.10;30.00;;;;;;4992301;28;20478;-84
2023/07/27 06:19:08;;;;;;;13.50;7.77;;;16.20;29.20;;;;;;4992855;28;20274;-81
2023/07/27 06:21:33;;;;;;;12.70;8.20;;;16.20;30.10;;;;;;4991659;28;20184;-82
2023/07/27 06:23:59;;;;;;;15.27;8.73;;;16.30;29.60;;;;;;4992318;28;20172;-82
2023/07/27 06:26:24;;;;;;;12.20;7.40;;;16.40;29.10;;;;;;4991992;28;20674;-83
2023/07/27 06:28:50;;;;;;;13.57;8.17;;;16.50;26.00;;;;;;4992792;28;20181;-82
2023/07/27 06:31:16;;;;;;;10.80;7.30;;;16.50;24.70;;;;;;4991790;28;20184;-83
2023/07/27 06:33:42;;;;;;;12.27;7.43;;;16.60;24.10;;;;;;4992586;28;20495;-84
2023/07/27 06:36:08;;;;;;;14.30;7.27;;;16.60;21.00;;;;;;4991064;28;20225;-83
2023/07/27 06:38:33;;;;;;;11.20;7.07;;;16.70;18.40;;;;;;4991944;28;20276;-83
2023/07/27 06:40:59;;;;;;;10.03;6.40;;;16.80;19.10;;;;;;4992254;28;20432;-83
2023/07/27 06:43:24;;;;;;;9.43;5.93;;;16.90;14.70;;;;;;4993367;28;20185;-82
2023/07/27 06:45:50;;;;;;;12.97;6.03;;;16.90;11.50;;;;;;5010302;28;20232;-83
2023/07/27 06:48:16;;;;;;;10.77;6.00;;;16.90;11.10;;;;;;5077695;28;20209;-84
2023/07/27 06:50:41;;;;;;;8.67;6.00;;;16.90;9.60;;;;;;5078699;28;20183;-85
2023/07/27 06:53:07;;;;;;;9.23;5.87;;;17.00;11.00;;;;;;5077537;28;20428;-83
2023/07/27 06:55:32;;;;;;;9.17;5.47;;;17.00;11.20;;;;;;5077494;28;20232;-83
2023/07/27 06:57:58;;;;;;;11.20;5.50;;;17.10;10.70;;;;;;5076975;28;20215;-85
2023/07/27 07:00:24;;;;;;;7.37;5.57;;;17.20;7.50;;;;;;5078570;28;20181;-83
2023/07/27 07:02:50;;;;;;;7.93;4.40;;;17.30;2.40;;;;;;5078586;28;20166;-83
2023/07/27 07:05:15;;;;;;;7.17;5.20;;;17.30;4.80;;;;;;5079026;28;20405;-83
2023/07/27 07:07:42;;;;;;;6.47;4.83;;;17.30;1.40;;;;;;5080663;28;20781;-84
2023/07/27 07:10:08;;;;;;;6.37;4.67;;;17.30;2.70;;;;;;5080241;28;20241;-85
2023/07/27 07:12:34;;;;;;;6.73;5.07;;;17.30;5.30;;;;;;5078413;28;20911;-84
2023/07/27 07:14:59;;;;;;;12.60;5.40;;;17.30;4.40;;;;;;5079427;28;20502;-85
2023/07/27 07:17:25;;;;;;;8.50;5.87;;;17.40;6.70;;;;;;4998594;28;20226;-84
2023/07/27 07:19:50;;;;;;;7.03;4.67;;;17.50;5.60;;;;;;5082978;28;20167;-85
2023/07/27 07:22:16;;;;;;;8.30;5.83;;;17.40;1.00;;;;;;5084462;28;20192;-87
2023/07/27 07:24:46;;;;;;;8.23;5.47;;;17.40;3.80;;;;;;5082849;28;20214;-85
2023/07/27 07:27:28;;;;;;;7.70;5.57;;;17.50;3.80;;;;;;5075347;28;20222;-85
2023/07/27 07:29:54;;;;;;;6.20;4.93;;;17.50;2.90;;;;;;5077258;28;20432;-85
2023/07/27 07:32:38;;;;;;;6.63;5.37;;;17.50;1.00;;;;;;5079456;28;20410;-85
2023/07/27 07:35:38;;;;;;;5.80;5.20;;;17.50;1.20;;;;;;5076770;28;20196;-85
2023/07/27 07:38:35;;;;;;;6.87;4.77;;;17.60;4.10;;;;;;5074801;28;20469;-85
2023/07/27 07:41:28;;;;;;;7.07;4.83;;;17.70;1.00;;;;;;5078883;28;20413;-85
2023/07/27 07:44:07;;;;;;;6.50;4.73;;;17.70;1.00;;;;;;5079215;28;20498;-85
2023/07/27 07:46:40;;;;;;;5.87;5.00;;;17.70;1.00;;;;;;5073414;28;20426;-85
2023/07/27 07:49:06;;;;;;;5.90;4.90;;;17.70;1.00;;;;;;5025099;28;20429;-85
2023/07/27 07:51:42;;;;;;;;;;;;;;;;;;;;;
2023/07/27 07:54:11;;;;;;;6.27;5.37;;;17.70;1.00;;;;;;5000344;28;20272;-85
2023/07/27 07:56:59;;;;;;;8.73;5.73;;;17.70;1.00;;;;;;4999613;28;20464;-85
2023/07/27 07:59:35;;;;;;;7.57;5.67;;;17.80;1.00;;;;;;4999064;28;20571;-85
2023/07/27 08:02:32;;;;;;;7.10;6.10;;;18.00;1.00;;;;;;4999089;28;20429;-85
2023/07/27 08:06:07;;;;;;;8.37;5.70;;;18.10;1.00;;;;;;4997902;28;20529;-85
2023/07/27 08:08:41;;;;;;;6.87;4.90;;;18.10;1.00;;;;;;5027566;22;21084;-85
2023/07/27 08:11:32;;;;;;;8.73;5.00;;;18.10;1.00;;;;;;4975321;28;20431;-86
2023/07/27 08:14:15;;;;;;;7.30;5.73;;;18.10;1.00;;;;;;4974102;28;20434;-85
2023/07/27 08:19:56;;;;;;;8.47;5.90;;;18.10;1.00;;;;;;4958953;28;20421;-86
2023/07/27 08:22:33;;;;;;;7.00;6.30;;;18.10;1.00;;;;;;4967243;28;20444;-86
2023/07/27 08:28:43;;;;;;;7.20;5.50;;;18.20;1.00;;;;;;4959812;28;20440;-86
2023/07/27 08:31:47;;;;;;;;;;;;;;;;;;;;;
2023/07/27 08:37:56;;;;;;;6.60;5.13;;;18.30;1.00;;;;;;4953008;29;20841;-86
2023/07/27 08:40:55;;;;;;;5.50;4.90;;;18.40;1.00;;;;;;4951413;28;20432;-86
2023/07/27 08:43:28;;;;;;;6.80;5.20;;;18.40;1.00;;;;;;4951784;28;20419;-87
2023/07/27 08:45:56;;;;;;;5.87;5.23;;;18.50;1.00;;;;;;4956445;28;20427;-86
2023/07/27 08:48:25;;;;;;;6.90;5.70;;;18.70;1.00;;;;;;4972209;28;20509;-86
2023/07/27 08:51:02;;;;;;;6.80;5.57;;;18.80;1.00;;;;;;4971163;28;20922;-87
2023/07/27 08:53:31;;;;;;;6.37;5.17;;;18.80;1.00;;;;;;4971325;28;20416;-86
2023/07/27 08:55:58;;;;;;;7.30;4.30;;;18.80;1.00;;;;;;4970395;28;20512;-86
2023/07/27 08:58:30;;;;;;;5.27;4.70;;;18.80;1.00;;;;;;4970414;28;20457;-87
2023/07/27 09:00:59;;;;;;;5.50;4.47;;;18.90;1.00;;;;;;4970501;28;20489;-86
2023/07/27 09:03:26;;;;;;;4.83;4.33;;;18.80;1.00;;;;;;4971665;28;20918;-86
2023/07/27 09:06:03;;;;;;;6.30;4.10;;;18.80;1.00;;;;;;4970055;28;20458;-87
2023/07/27 09:08:31;;;;;;;4.83;4.33;;;18.80;1.00;;;;;;4970191;28;20545;-86
2023/07/27 09:11:13;;;;;;;5.07;4.57;;;18.90;1.00;;;;;;4970635;28;20435;-87
2023/07/27 09:13:39;;;;;;;6.00;4.17;;;18.90;1.00;;;;;;4970179;28;20441;-87
2023/07/27 09:16:16;;;;;;;4.33;3.60;;;19.00;1.00;;;;;;4965190;28;20431;-87
2023/07/27 09:18:48;;;;;;;3.70;3.33;;;19.30;1.00;;;;;;4950601;28;20208;-86
2023/07/27 09:21:35;;;;;;;4.30;3.83;;;19.50;1.00;;;;;;4950852;28;20417;-86
2023/07/27 09:24:10;;;;;;;4.70;3.90;;;19.90;1.00;;;;;;4957403;28;20588;-87
2023/07/27 09:26:58;;;;;;;6.10;4.10;;;20.30;99.90;;;;;;4950534;28;20433;-86
2023/07/27 09:29:37;;;;;;;4.77;3.77;;;20.90;99.90;;;;;;4950560;28;20442;-87
2023/07/27 09:32:05;;;;;;;3.53;3.20;;;21.40;1.00;;;;;;4951772;28;20407;-87
2023/07/27 09:34:32;;;;;;;5.27;3.43;;;21.50;99.90;;;;;;4951037;28;20429;-87
2023/07/27 09:37:27;;;;;;;4.97;3.57;;;21.40;99.90;;;;;;4951798;28;20474;-86
2023/07/27 09:40:12;;;;;;;5.43;4.50;;;21.10;8.90;;;;;;4950477;28;20435;-87
2023/07/27 09:42:49;;;;;;;5.70;4.20;;;20.90;1.00;;;;;;4966345;28;20454;-86
2023/07/27 09:45:18;;;;;;;5.97;4.47;;;20.70;1.00;;;;;;4950791;28;20427;-86
2023/07/27 09:47:53;;;;;;;5.37;4.07;;;20.50;1.00;;;;;;4961152;28;20468;-86
2023/07/27 09:50:22;;;;;;;5.20;4.40;;;20.40;1.00;;;;;;4969318;28;20435;-86
2023/07/27 09:52:54;;;;;;;4.03;3.63;;;20.50;52.40;;;;;;4969657;28;20458;-86
2023/07/27 09:55:28;;;;;;;3.90;2.87;;;20.60;3.10;;;;;;4969809;28;20466;-86
2023/07/27 09:57:58;;;;;;;4.13;3.70;;;20.50;1.00;;;;;;4969595;28;20474;-86
2023/07/27 10:00:24;;;;;;;4.60;3.60;;;20.50;1.00;;;;;;4969592;28;20457;-86
2023/07/27 10:02:50;;;;;;;4.00;3.03;;;20.70;1.00;;;;;;4969182;28;20880;-86
2023/07/27 10:05:15;;;;;;;4.70;3.50;;;21.00;99.90;;;;;;4969762;28;20429;-86
2023/07/27 10:07:45;;;;;;;5.90;2.83;;;21.10;1.00;;;;;;4985700;28;20464;-86
2023/07/27 10:10:32;;;;;;;8.57;3.47;;;21.00;1.00;;;;;;4969764;28;20220;-86
2023/07/27 10:13:15;;;;;;;3.40;3.00;;;20.80;99.90;;;;;;4969594;28;20467;-85
2023/07/27 10:15:45;;;;;;;5.53;3.37;;;20.80;1.00;;;;;;4966411;28;20456;-86
2023/07/27 10:18:14;;;;;;;4.47;3.33;;;21.20;1.00;;;;;;4950398;28;20492;-87
2023/07/27 10:20:40;;;;;;;4.70;3.57;;;21.50;11.60;;;;;;4967212;28;20431;-85
2023/07/27 10:23:20;;;;;;;2.90;2.60;;;21.60;99.90;;;;;;4954897;28;20420;-85
2023/07/27 10:25:54;;;;;;;4.10;3.00;;;21.50;1.00;;;;;;4955367;28;20430;-86
2023/07/27 10:28:37;;;;;;;3.53;2.83;;;21.50;99.90;;;;;;4957361;28;20517;-85
2023/07/27 10:31:26;;;;;;;3.60;2.60;;;21.30;1.00;;;;;;4956736;28;20428;-85
2023/07/27 10:33:55;;;;;;;3.10;2.80;;;21.20;1.00;;;;;;4957986;28;20494;-85
2023/07/27 10:36:24;;;;;;;2.90;2.60;;;21.10;62.40;;;;;;4957771;28;20454;-85
2023/07/27 10:38:54;;;;;;;6.97;2.70;;;21.00;99.90;;;;;;4958513;28;20433;-85
2023/07/27 10:41:29;;;;;;;3.27;2.80;;;20.90;1.00;;;;;;4959562;28;20417;-86
2023/07/27 10:44:06;;;;;;;2.83;2.50;;;20.80;99.90;;;;;;4960855;28;20399;-85
2023/07/27 10:46:35;;;;;;;4.30;2.73;;;20.80;1.00;;;;;;4977811;28;20491;-87
2023/07/27 10:49:11;;;;;;;3.77;2.53;;;20.60;1.00;;;;;;4972293;28;20421;-84
2023/07/27 10:51:38;;;;;;;3.77;2.90;;;20.60;19.60;;;;;;4983096;28;20749;-85
2023/07/27 10:54:04;;;;;;;3.30;2.13;;;21.00;17.20;;;;;;4983271;28;20852;-84
2023/07/27 10:56:32;;;;;;;3.40;2.83;;;22.00;99.90;;;;;;4982896;28;20513;-85
2023/07/27 10:59:00;;;;;;;3.23;2.50;;;22.70;99.90;;;;;;4983524;28;20414;-87
2023/07/27 11:01:32;;;;;;;2.57;2.00;;;23.10;99.90;;;;;;4983411;28;20500;-85
2023/07/27 11:03:58;;;;;;;3.10;2.33;;;23.20;1.00;;;;;;4983204;28;20449;-85
2023/07/27 11:06:27;;;;;;;2.60;2.27;;;23.50;99.90;;;;;;4982747;28;20419;-86
2023/07/27 11:08:53;;;;;;;4.20;2.10;;;23.50;99.90;;;;;;4984098;28;20197;-84
2023/07/27 11:11:20;;;;;;;2.40;2.20;;;23.30;99.90;;;;;;4984253;28;20425;-85
2023/07/27 11:13:46;;;;;;;2.87;2.30;;;23.00;99.90;;;;;;4981833;28;20183;-85
2023/07/27 11:16:15;;;;;;;8.87;2.87;;;22.80;1.00;;;;;;4981129;28;20431;-85
2023/07/27 11:18:42;;;;;;;3.63;2.37;;;22.50;1.00;;;;;;4965438;28;20518;-85
2023/07/27 11:21:08;;;;;;;2.87;2.40;;;22.50;1.00;;;;;;4961866;28;20417;-86
2023/07/27 11:23:45;;;;;;;2.40;2.17;;;22.60;99.90;;;;;;4961893;28;20475;-84
2023/07/27 11:26:10;;;;;;;2.97;2.33;;;22.60;98.00;;;;;;4962291;28;20419;-86
2023/07/27 11:28:39;;;;;;;4.80;2.30;;;22.80;99.90;;;;;;4960483;28;20444;-84
2023/07/27 11:31:06;;;;;;;7.63;2.40;;;23.00;99.90;;;;;;4962524;28;20613;-84
2023/07/27 11:33:33;;;;;;;2.10;1.70;;;23.20;3.20;;;;;;4959553;28;20428;-84
2023/07/27 11:36:00;;;;;;;2.33;1.90;;;23.30;1.00;;;;;;4960509;28;20454;-85
2023/07/27 11:38:26;;;;;;;2.57;1.87;;;23.30;1.00;;;;;;4960059;28;20475;-84
2023/07/27 11:40:54;;;;;;;2.30;1.83;;;23.00;1.00;;;;;;4961832;28;20498;-84
2023/07/27 11:43:20;;;;;;;1.70;1.37;;;22.80;13.30;;;;;;4960330;28;20422;-85
2023/07/27 11:45:45;;;;;;;2.30;1.97;;;22.70;99.90;;;;;;4965862;28;20420;-88
2023/07/27 11:48:11;;;;;;;1.80;1.60;;;22.60;1.00;;;;;;4960551;28;20212;-85
2023/07/27 11:50:38;;;;;;;2.33;1.80;;;22.40;1.00;;;;;;4960762;28;20182;-83
2023/07/27 11:53:09;;;;;;;3.43;1.97;;;22.30;99.90;;;;;;4961180;28;20182;-84
2023/07/27 11:55:38;;;;;;;2.10;1.83;;;22.20;99.90;;;;;;4959892;28;20405;-84
2023/07/27 11:58:07;;;;;;;2.23;1.47;;;22.10;99.90;;;;;;4959660;28;20463;-85
2023/07/27 12:00:33;;;;;;;2.30;1.67;;;22.10;1.00;;;;;;4959918;28;20511;-85
2023/07/27 12:02:59;;;;;;;1.80;1.57;;;22.10;1.00;;;;;;4960761;28;20490;-85
2023/07/27 12:05:24;;;;;;;2.00;1.60;;;22.10;99.90;;;;;;4959891;28;20900;-85
2023/07/27 12:07:50;;;;;;;2.20;1.60;;;21.90;1.00;;;;;;4959042;28;20228;-85
2023/07/27 12:10:17;;;;;;;1.80;1.57;;;21.90;14.90;;;;;;4961391;28;20552;-84
2023/07/27 12:12:51;;;;;;;3.00;1.47;;;21.70;99.90;;;;;;4961174;28;20481;-84
2023/07/27 12:15:29;;;;;;;3.50;1.40;;;21.30;99.90;;;;;;4959247;28;20439;-85
2023/07/27 12:17:56;;;;;;;1.90;1.27;;;21.20;1.00;;;;;;4978124;28;20997;-84
2023/07/27 12:20:25;;;;;;;1.60;1.23;;;21.20;1.00;;;;;;4978826;28;20419;-85
2023/07/27 12:22:51;;;;;;;1.30;0.93;;;21.30;1.00;;;;;;4978723;28;20445;-85
2023/07/27 12:25:17;;;;;;;1.50;0.90;;;21.40;99.90;;;;;;4978955;28;20420;-85
2023/07/27 12:27:42;;;;;;;1.60;0.83;;;21.50;1.00;;;;;;4978500;28;20277;-85
2023/07/27 12:30:09;;;;;;;1.40;0.90;;;21.80;99.90;;;;;;4978462;28;20195;-85
2023/07/27 12:32:35;;;;;;;1.80;0.90;;;22.00;94.10;;;;;;4979544;28;20173;-84
2023/07/27 12:35:01;;;;;;;1.93;0.83;;;22.20;1.00;;;;;;4979512;28;20438;-85
2023/07/27 12:37:27;;;;;;;3.37;1.07;;;22.30;74.90;;;;;;4994282;28;20473;-85
2023/07/27 12:39:52;;;;;;;2.20;0.90;;;22.20;99.90;;;;;;4980060;28;20467;-85
2023/07/27 12:42:18;;;;;;;1.37;0.90;;;22.10;1.00;;;;;;4977908;28;20275;-83
2023/07/27 12:44:43;;;;;;;1.37;0.90;;;22.00;99.90;;;;;;4977938;28;20964;-86
2023/07/27 12:47:09;;;;;;;1.77;1.37;;;21.90;1.00;;;;;;4983368;28;20686;-85
2023/07/27 12:49:34;;;;;;;2.57;0.83;;;21.90;1.00;;;;;;4959823;28;20646;-83
2023/07/27 12:52:00;;;;;;;1.37;0.93;;;21.80;99.90;;;;;;4960428;28;20189;-84
2023/07/27 12:54:25;;;;;;;1.20;0.83;;;21.70;99.90;;;;;;4974838;28;20182;-84
2023/07/27 12:56:51;;;;;;;1.10;0.70;;;21.60;99.90;;;;;;4960133;28;20597;-84
2023/07/27 12:59:17;;;;;;;1.20;0.77;;;21.70;99.90;;;;;;4958524;28;20195;-84
2023/07/27 13:01:43;;;;;;;1.40;0.70;;;21.70;99.90;;;;;;4959079;28;20715;-84
2023/07/27 13:04:09;;;;;;;1.20;0.70;;;21.70;48.50;;;;;;4959968;28;20433;-84
2023/07/27 13:06:34;;;;;;;1.63;0.90;;;21.80;1.00;;;;;;4959487;28;20205;-84
2023/07/27 13:09:00;;;;;;;1.53;0.70;;;21.80;99.90;;;;;;4959935;28;20182;-85
2023/07/27 13:11:25;;;;;;;1.27;0.60;;;21.90;1.00;;;;;;4959966;28;20192;-83